METAR (acronimo di METeorological Air Report) è un messaggio meteo emesso nella maggior parte dei casi in ambito aeroportuale

LEMD - Madrid-Barajas, Spagna
Ultimo Aggiornamento: Venerdì 18 Ottobre 2019 15:00 CEST
Prevalentemente Nuvoloso
Prevalentemente Nuvoloso
 Wind from Sud-Ovest
Vento: Sud-Ovest 22 km/h
Temperatura: 21°C
Punto di Rugiada: 14°C
Umidità: 64%
Barometro: 1016 hPa
Nuvole: Prevalentemente Nuvoloso
Visibilità: 10 km
Nuvole nel Dettaglio: Prevalentemente Nuvoloso 914 m
2019/10/18 13:00 LEMD 181300Z 23012KT 9999 BKN030 21/14 Q1016 R18L/19//95 R18R/19//95 NOSIG
LPPT - Lisbona, Portogallo
Ultimo Aggiornamento: Venerdì 18 Ottobre 2019 15:00 CEST
Prevalentemente Nuvoloso
Prevalentemente Nuvoloso
 Wind from Ovest-Sud-Ovest
Vento: Ovest-Sud-Ovest 13 km/h
Temperatura: 19°C
Punto di Rugiada: 13°C
Umidità: 68%
Barometro: 1018 hPa
Nuvole: Prevalentemente Nuvoloso
Visibilità: 10 km
Nuvole nel Dettaglio: Parzialmente Nuvoloso 762 m
Prevalentemente Nuvoloso 1372 m
2019/10/18 13:00 LPPT 181300Z 24007KT 200V280 9999 SCT025 BKN045 19/13 Q1018
LFPG - Parigi Charles de Gaulle, Francia
Ultimo Aggiornamento: Venerdì 18 Ottobre 2019 15:00 CEST
Parzialmente Nuvoloso
Parzialmente Nuvoloso
 Wind from Sud-Sud-Ovest
Vento: Sud-Sud-Ovest 30 km/h
Temperatura: 16°C
Punto di Rugiada: 5°C
Umidità: 48%
Barometro: 1009 hPa
Nuvole: Parzialmente Nuvoloso
Visibilità: 10 km
Nuvole nel Dettaglio: Parzialmente Nuvoloso 1402 m
2019/10/18 13:00 LFPG 181300Z 21016KT 190V250 9999 SCT046 16/05 Q1009 NOSIG
 
LSZB - Berna, Svizzera
Ultimo Aggiornamento: Venerdì 18 Ottobre 2019 14:50 CEST
Parzialmente Nuvoloso
Parzialmente Nuvoloso
 Wind from varies
Vento: variabile 4 km/h
Temperatura: 17°C
Punto di Rugiada: 11°C
Umidità: 68%
Barometro: 1014 hPa
Nuvole: Parzialmente Nuvoloso
Visibilità: 10 km
Nuvole nel Dettaglio: Qualche Nuvola 549 m
Parzialmente Nuvoloso 2134 m
2019/10/18 12:50 LSZB 181250Z VRB02KT 9999 FEW018 SCT070 17/11 Q1014 NOSIG
LOWW - Vienna-Schwechat, Austria
Ultimo Aggiornamento: Venerdì 18 Ottobre 2019 14:50 CEST
Parzialmente Nuvoloso
Parzialmente Nuvoloso
 Wind from Nord-Est
Vento: Nord-Est 11 km/h
Temperatura: 14°C
Punto di Rugiada: 11°C
Umidità: 82%
Barometro: 1015 hPa
Nuvole: Parzialmente Nuvoloso
Visibilità: 10 km
Nuvole nel Dettaglio: Qualche Nuvola 366 m
Parzialmente Nuvoloso 457 m
2019/10/18 12:50 LOWW 181250Z 05006KT 9999 FEW012 SCT015 14/11 Q1015 NOSIG
LKPR - Praga-Ruzyne, Repubblica Ceca
Ultimo Aggiornamento: Venerdì 18 Ottobre 2019 15:00 CEST
Qualche Nuvola
Qualche Nuvola
 Wind from Sud-Sud-Est
Vento: Sud-Sud-Est 15 km/h
Temperatura: 18°C
Punto di Rugiada: 9°C
Umidità: 56%
Barometro: 1012 hPa
Nuvole: Qualche Nuvola
Visibilità: 10 km
Nuvole nel Dettaglio: Qualche Nuvola 1219 m
2019/10/18 13:00 LKPR 181300Z 16008KT 9999 FEW040 18/09 Q1012 NOSIG
 
LHBP - Budapest-Ferihegy, Ungheria
Ultimo Aggiornamento: Venerdì 18 Ottobre 2019 15:00 CEST
Sereno
Sereno
 Wind from Sud
Vento: Sud 17 km/h
Temperatura: 21°C
Punto di Rugiada: 11°C
Umidità: 53%
Barometro: 1015 hPa
Condizioni: Sereno
Visibilità: superiore a 10 km
2019/10/18 13:00 LHBP 181300Z 17009KT 140V230 CAVOK 21/11 Q1015 NOSIG
UUEE - Mosca-Seremetevo, Russia
Ultimo Aggiornamento: Venerdì 18 Ottobre 2019 15:00 CEST
Prevalentemente Nuvoloso
Prevalentemente Nuvoloso
 Wind from Ovest
Vento: Ovest 14 km/h
Temperatura: 14°C
Punto di Rugiada: 9°C
Umidità: 72%
Barometro: 1016 hPa
Nuvole: Prevalentemente Nuvoloso
Visibilità: 10 km
Nuvole nel Dettaglio: Prevalentemente Nuvoloso 853 m
2019/10/18 13:00 UUEE 181300Z 26004MPS 9999 BKN028 14/09 Q1016 R88/CLRD62 NOSIG
EYVI - Vilnius, Lituania
Ultimo Aggiornamento: Venerdì 18 Ottobre 2019 14:50 CEST
Sereno
Sereno
 Wind from Sud
Vento: Sud 19 km/h
Temperatura: 16°C
Punto di Rugiada: 9°C
Umidità: 63%
Barometro: 1015 hPa
Condizioni: Sereno
Visibilità: superiore a 10 km
2019/10/18 12:50 EYVI 181250Z 19010KT CAVOK 16/09 Q1015 NOSIG
 
EVRA - Riga, Lettonia
Ultimo Aggiornamento: Venerdì 18 Ottobre 2019 14:50 CEST
Nuvoloso
Nuvoloso
 Wind from Sud
Vento: Sud 15 km/h
Temperatura: 14°C
Punto di Rugiada: 13°C
Umidità: 94%
Barometro: 1013 hPa
Nuvole: Nuvoloso
Visibilità: 10 km
Nuvole nel Dettaglio: Nuvoloso 335 m
2019/10/18 12:50 EVRA 181250Z 17008KT 9999 OVC011 14/13 Q1013 R18/190095 NOSIG
EETN - Tallinn, Estonia
Ultimo Aggiornamento: Venerdì 18 Ottobre 2019 14:50 CEST
Pioviggine, Bruma, Nuvoloso
Pioviggine, Bruma, Nuvoloso
 Wind from Sud-Est
Vento: Sud-Est 11 km/h
Temperatura: 11°C
Punto di Rugiada: 11°C
Umidità: 100%
Barometro: 1012 hPa
Condizioni: Pioviggine, Bruma
Nuvole: Nuvoloso
Visibilità: 5 km
Nuvole nel Dettaglio: Nuvoloso 122 m
2019/10/18 12:50 EETN 181250Z 14006KT 4500 -DZ BR OVC004 11/11 Q1012 TEMPO 2000
EKCH - Copenaghen, Danimarca
Ultimo Aggiornamento: Venerdì 18 Ottobre 2019 14:50 CEST
Parzialmente Nuvoloso
Parzialmente Nuvoloso
 Wind from Sud
Vento: Sud 19 km/h
Temperatura: 14°C
Punto di Rugiada: 13°C
Umidità: 94%
Barometro: 1005 hPa
Nuvole: Parzialmente Nuvoloso
Visibilità: 10 km
Nuvole nel Dettaglio: Qualche Nuvola 122 m
Parzialmente Nuvoloso 3048 m
2019/10/18 12:50 EKCH 181250Z AUTO 17010KT 9999 FEW004/// SCT100/// 14/13 Q1005 NOSIG
 
ESSA - Stockholm Arlanda, Svezia
Ultimo Aggiornamento: Venerdì 18 Ottobre 2019 14:50 CEST
Parzialmente Nuvoloso
Parzialmente Nuvoloso
 Wind from Sud-Ovest
Vento: Sud-Ovest 17 km/h
Temperatura: 11°C
Punto di Rugiada: 8°C
Umidità: 82%
Barometro: 1008 hPa
Nuvole: Parzialmente Nuvoloso
Visibilità: 10 km
Nuvole nel Dettaglio: Parzialmente Nuvoloso 457 m
2019/10/18 12:50 ESSA 181250Z 23009KT 9999 SCT015 11/08 Q1008 NOSIG
EDDT - Berlin Tegel, Germania
Ultimo Aggiornamento: Venerdì 18 Ottobre 2019 14:50 CEST
Qualche Nuvola
Qualche Nuvola
 Wind from Sud
Vento: Sud 19 km/h
Temperatura: 19°C
Punto di Rugiada: 12°C
Umidità: 64%
Barometro: 1008 hPa
Nuvole: Qualche Nuvola
Visibilità: 10 km
Nuvole nel Dettaglio: Qualche Nuvola 853 m
2019/10/18 12:50 EDDT 181250Z 19010KT 160V230 9999 FEW028 19/12 Q1008 NOSIG
EGLL - Londra-Heathrow, Inghilterra
Ultimo Aggiornamento: Venerdì 18 Ottobre 2019 14:50 CEST
Temporale
Temporale
 Wind from Sud-Ovest
Vento: Sud-Ovest 22 km/h
Temperatura: 14°C
Punto di Rugiada: 10°C
Umidità: 77%
Barometro: 1000 hPa
Nuvole: Temporale
Visibilità: 10 km
Nuvole nel Dettaglio: Qualche Nuvola 853 m
Parzialmente Nuvoloso 1219 m
2019/10/18 12:50 EGLL 181250Z AUTO 22012KT 9999 FEW028/// SCT040/// //////CB 14/10 Q1000 NOSIG
 
EGPH - Edinburgh, Scotland
Ultimo Aggiornamento: Venerdì 18 Ottobre 2019 14:50 CEST
Pioggia Leggera, Parzialmente Nuvoloso
Pioggia Leggera, Parzialmente Nuvoloso
 Wind from varies
Vento: variabile 6 km/h
Temperatura: 11°C
Punto di Rugiada: 9°C
Umidità: 88%
Barometro: 993 hPa
Condizioni: Pioggia Leggera
Nuvole: Parzialmente Nuvoloso
Visibilità: 10 km
Nuvole nel Dettaglio: Qualche Nuvola 335 m
Parzialmente Nuvoloso 1067 m
2019/10/18 12:50 EGPH 181250Z VRB03KT 9999 -RA FEW011 SCT035 11/09 Q0993
EPWA - Varsavia-Chopin, Polonia
Ultimo Aggiornamento: Venerdì 18 Ottobre 2019 15:00 CEST
Qualche Nuvola
Qualche Nuvola
 Wind from Sud-Ovest
Vento: Sud-Ovest 17 km/h
Temperatura: 20°C
Punto di Rugiada: 11°C
Umidità: 56%
Barometro: 1014 hPa
Nuvole: Qualche Nuvola
Visibilità: 10 km
Nuvole nel Dettaglio: Qualche Nuvola 1219 m
2019/10/18 13:00 EPWA 181300Z 22009KT 9999 FEW040 20/11 Q1014 NOSIG
ENGM - Oslo-Gardermoen, Norvegia
Ultimo Aggiornamento: Venerdì 18 Ottobre 2019 14:50 CEST
Nuvoloso
Nuvoloso
 Wind from Sud
Vento: Sud 6 km/h
Temperatura: 7°C
Punto di Rugiada: 6°C
Umidità: 93%
Barometro: 1006 hPa
Nuvole: Nuvoloso
Visibilità: 10 km
Nuvole nel Dettaglio: Qualche Nuvola 61 m
Nuvoloso 183 m
2019/10/18 12:50 ENGM 181250Z 18003KT 120V270 9999 FEW002 OVC006 07/06 Q1006 TEMPO BKN012
 
LJLJ - Ljubljana Joze Pucnik, Slovenia
Ultimo Aggiornamento: Venerdì 18 Ottobre 2019 15:00 CEST
Prevalentemente Nuvoloso
Prevalentemente Nuvoloso
 Wind from Ovest-Sud-Ovest
Vento: Ovest-Sud-Ovest 11 km/h
Temperatura: 19°C
Punto di Rugiada: 11°C
Umidità: 60%
Barometro: 1016 hPa
Nuvole: Prevalentemente Nuvoloso
Visibilità: 10 km
Nuvole nel Dettaglio: Qualche Nuvola 1219 m
Prevalentemente Nuvoloso 1524 m
2019/10/18 13:00 LJLJ 181300Z 24006KT 210V290 9999 FEW040 BKN050 19/11 Q1016 NOSIG
LYBE - Belgrado-Nikola Tesla, Serbia
Ultimo Aggiornamento: Venerdì 18 Ottobre 2019 15:00 CEST
Sereno
Sereno
 Wind from Ovest-Nord-Ovest
Vento: Ovest-Nord-Ovest 9 km/h
Temperatura: 24°C
Punto di Rugiada: 12°C
Umidità: 47%
Barometro: 1016 hPa
Condizioni: Sereno
Visibilità: superiore a 10 km
2019/10/18 13:00 LYBE 181300Z 29005KT 240V340 CAVOK 24/12 Q1016 NOSIG
LGAV - Atene-Eleftherios Venizelos, Grecia
Ultimo Aggiornamento: Venerdì 18 Ottobre 2019 14:50 CEST
Parzialmente Nuvoloso
Parzialmente Nuvoloso
 Wind from Sud-Est
Vento: Sud-Est 13 km/h
Temperatura: 24°C
Punto di Rugiada: 17°C
Umidità: 65%
Barometro: 1017 hPa
Nuvole: Parzialmente Nuvoloso
Visibilità: 10 km
Nuvole nel Dettaglio: Parzialmente Nuvoloso 610 m
2019/10/18 12:50 LGAV 181250Z 13007KT 9999 SCT020 24/17 Q1017 NOSIG